OROVILLE DAM (ORO)

Elevation: 900' · FEATHER R basin · Operator: CA Dept of Water Resources/O & M

Provisional data, subject to change.
Query executed Thursday at 20:07:44   clock

Select a sensor type for a plot of data.
Note: Reservoir Flows are daily averages.

Earlier

Date RES ELE    STORAGE    RES CHG    TOC STO    ABV TOC    OUTFLOW    INFLOW    EVAP    FNF    PPT INC    RAIN    PPTINC4   
 FEET   AF   AF   AF   AF   CFS   CFS   CFS   CFS   INCHES   INCHES   INCHES  
07/27/2016 818.55 2408098 -18442 3538000 -1129902 11709 2585 193 1101 e 0.00 30.68 0.00
07/28/2016 817.09 2390554 -17544 3538000 -1147446 11465 2759 199 973 e 0.00 30.68 0.00
07/29/2016 815.60 2372739 -17815 3538000 -1165261 10919 2098 158 973 e 0.00 30.68 0.00
07/30/2016 813.93 2352883 -19856 3538000 -1185117 10653 886 182 973 e 0.00 30.68 0.00
07/31/2016 812.31 2333732 -19150 3538000 -1204268 10824 1352 182 517 e 0.00 30.68 0.00
08/01/2016 810.53 2312816 -20917 3538000 -1225184 10722 306 188 517 e 0.00 30.68 0.00
08/02/2016 808.95 2294358 -18458 3538000 -1243642 10770 1602 136 448 e 0.00 30.68 0.00
08/03/2016 807.17 2273688 -20670 3538000 -1264312 10768 627 161 448 e 0.00 30.68 0.00
08/04/2016 805.52 2254644 -19044 3538000 -1283356 10127 564 153 448 e 0.00 30.68 0.00
08/05/2016 803.81 2235026 -19618 3538000 -1302974 10150 499 123 448 e 0.00 30.68 0.00
08/06/2016 802.21 2216778 -18248 3538000 -1321222 10392 1246 111 448 e 0.00 30.68 0.00
08/07/2016 800.48 2197165 -19613 3538000 -1340835 10376 599 110 491 e 0.00 30.68 0.00
08/08/2016 798.97 2180147 -17018 3538000 -1357853 10421 2059 160 491 e 0.00 30.68 0.00
08/09/2016 797.44 2162999 -17148 3538000 -1375001 10530 1872 156 491 e 0.00 30.68 0.00
08/10/2016 795.62 2142724 -20275 3538000 -1395276 10568 541 137 490 e 0.00 30.68 0.00
08/11/2016 793.99 2124680 -18044 3538000 -1413320 10403 1387 136 490 e 0.00 30.68 0.00
08/12/2016 792.40 2107184 -17496 3538000 -1430816 9968 1324 122 490 e 0.00 30.68 0.00
08/13/2016 790.88 2090553 -16631 3538000 -1447447 9518 1221 142 594 e 0.00 30.68 0.00
08/14/2016 789.50 2075535 -15018 3538000 -1462465 9567 2137 141 594 e 0.00 30.68 0.00
08/15/2016 787.94 2058651 -16884 3538000 -1479349 9591 1240 161 599 e 0.00 30.68 0.00
08/16/2016 786.50 2043154 -15497 3538000 -1494846 9482 1808 139 594 0.00 30.68 0.00
08/17/2016 785.29 2030195 -12959 3538000 -1507805 9087 2692 138 599 0.00 30.68 0.00
08/18/2016 783.65 2012727 -17468 3538000 -1525273 9089 356 128 477 e 0.00 30.68 0.00
08/19/2016 782.12 1996527 -16200 3538000 -1541473 8375 389 127 477 e 0.00 30.68 0.00
08/20/2016 780.64 1980947 -15580 3538000 -1557053 8366 595 137 476 e 0.00 30.68 0.00
08/21/2016 779.24 1966289 -14658 3538000 -1571711 8352 1151 135 476 e 0.00 30.68 0.00
08/22/2016 777.98 1953164 -13125 3538000 -1584836 7597 1030 50 476 e 0.00 30.68 0.00
08/23/2016 776.82 1941137 -12027 3538000 -1596863 7242 1283 104 345 0.00 30.68 0.00
08/24/2016 775.60 1928546 -12591 3538000 -1609454 7458 1148 90 -- 0.00 30.68 0.00
08/25/2016 -- -- -- -- -- -- -- -- -- -- -- 0.00

Later | Latest

Warning! This data is preliminary and subject to revision.

Show ORO Map | Plot ORO Data | 1 Month ORO Data | Real-Time ORO Data | ORO Info